createdAt,value
2022-08-28T00:01:44.484Z,76458.53
2022-08-28T00:04:10.900Z,76458.53
2022-08-28T00:06:37.379Z,76456.53
2022-08-28T00:09:04.051Z,76470.53
2022-08-28T00:11:30.438Z,76466.53
2022-08-28T00:13:57.123Z,76470.53
2022-08-28T00:16:23.546Z,76466.53
2022-08-28T00:18:53.128Z,76470.53
2022-08-28T00:21:19.539Z,76474.53
2022-08-28T00:23:46.199Z,76470.53
2022-08-28T00:26:32.886Z,76476.53
2022-08-28T00:28:59.675Z,76472.53
2022-08-28T00:31:26.139Z,76474.53
2022-08-28T00:33:52.597Z,76474.53
2022-08-28T00:36:19.701Z,76474.53
2022-08-28T00:38:46.097Z,76476.53
2022-08-28T00:41:12.962Z,76476.53
2022-08-28T00:43:43.118Z,76474.53
2022-08-28T00:46:11.935Z,76470.53
2022-08-28T00:48:39.284Z,76470.53
2022-08-28T00:51:25.143Z,76470.53
2022-08-28T00:53:55.596Z,76470.53
2022-08-28T00:56:25.735Z,76468.53
2022-08-28T00:58:52.687Z,76470.53
2022-08-28T01:01:19.559Z,76470.53
2022-08-28T01:03:46.046Z,76466.53
2022-08-28T01:06:14.689Z,76470.53
2022-08-28T01:08:42.751Z,76472.53
2022-08-28T01:11:10.799Z,76468.53
2022-08-28T01:13:38.415Z,76470.53
2022-08-28T01:16:05.598Z,76466.53
2022-08-28T01:18:33.271Z,76474.53
2022-08-28T01:21:35.318Z,76470.53
2022-08-28T01:24:09.158Z,76478.53
2022-08-28T01:26:35.637Z,76478.53
2022-08-28T01:29:02.164Z,76482.53
2022-08-28T01:31:31.286Z,76482.53
2022-08-28T01:34:01.620Z,76486.56
2022-08-28T01:36:29.275Z,76484.56
2022-08-28T01:39:02.885Z,76478.53
2022-08-28T01:41:29.684Z,76482.53
2022-08-28T01:43:56.654Z,76470.53
2022-08-28T01:46:23.115Z,76470.53
2022-08-28T01:48:49.584Z,76472.53
2022-08-28T01:51:16.011Z,76472.53
2022-08-28T01:53:45.002Z,76472.53
2022-08-28T01:56:13.814Z,76466.53
2022-08-28T01:58:40.519Z,76468.53
2022-08-28T02:01:14.282Z,76468.53
2022-08-28T02:03:43.291Z,76470.53
2022-08-28T02:06:10.205Z,76470.53
2022-08-28T02:08:36.871Z,76470.53
2022-08-28T02:11:05.146Z,76470.53
2022-08-28T02:13:31.686Z,76468.53
2022-08-28T02:15:58.624Z,76470.53
2022-08-28T02:18:25.140Z,76466.53
2022-08-28T02:20:51.613Z,76470.53
2022-08-28T02:23:18.047Z,76474.53
2022-08-28T02:25:44.466Z,76470.53
2022-08-28T02:28:11.131Z,76474.53
2022-08-28T02:30:38.428Z,76474.53
2022-08-28T02:33:04.856Z,76474.53
2022-08-28T02:35:31.411Z,76476.53
2022-08-28T02:37:58.140Z,76474.53
2022-08-28T02:40:27.304Z,76476.53
2022-08-28T02:42:53.831Z,76478.53
2022-08-28T02:45:20.711Z,76478.53
2022-08-28T02:47:47.371Z,76476.53
2022-08-28T02:50:16.687Z,76474.53
2022-08-28T02:52:43.625Z,76474.53
2022-08-28T02:55:11.415Z,76474.53
2022-08-28T02:57:37.861Z,76478.53
2022-08-28T03:00:05.655Z,76478.53
2022-08-28T03:02:32.168Z,76478.53
2022-08-28T03:04:59.844Z,76482.53
2022-08-28T03:07:27.949Z,76478.53
2022-08-28T03:09:54.291Z,76482.53
2022-08-28T03:12:24.123Z,76482.53
2022-08-28T03:14:51.902Z,76482.53
2022-08-28T03:17:18.582Z,76482.53
2022-08-28T03:19:45.149Z,76484.56
2022-08-28T03:22:12.059Z,76476.53
2022-08-28T03:24:38.696Z,76482.53
2022-08-28T03:27:05.664Z,76482.53
2022-08-28T03:29:32.072Z,76484.56
2022-08-28T03:31:58.418Z,76484.56
2022-08-28T03:34:24.813Z,76486.56
2022-08-28T03:36:51.234Z,76484.56
2022-08-28T03:39:17.642Z,76486.56
2022-08-28T03:41:44.088Z,76490.56
2022-08-28T03:44:10.703Z,76486.56
2022-08-28T03:46:37.173Z,76490.56
2022-08-28T03:49:04.339Z,76486.56
2022-08-28T03:51:33.374Z,76488.56
2022-08-28T03:54:00.315Z,76490.56
2022-08-28T03:56:28.175Z,76494.56
2022-08-28T03:58:57.491Z,76498.56
2022-08-28T04:01:23.957Z,76502.56
2022-08-28T04:03:50.427Z,76506.56
2022-08-28T04:06:17.045Z,76502.56
2022-08-28T04:08:43.479Z,76502.56
2022-08-28T04:11:10.152Z,76510.56
2022-08-28T04:13:36.688Z,76510.56
2022-08-28T04:16:10.937Z,76510.56
2022-08-28T04:18:38.783Z,76516.56
2022-08-28T04:21:07.953Z,76512.56
2022-08-28T04:23:38.555Z,76522.56
2022-08-28T04:26:06.039Z,76524.56
2022-08-28T04:28:32.693Z,76522.56
2022-08-28T04:30:59.146Z,76518.56
2022-08-28T04:33:26.609Z,76518.56
2022-08-28T04:35:53.051Z,76530.59
2022-08-28T04:38:19.751Z,76530.59
2022-08-28T04:40:46.159Z,76534.59
2022-08-28T04:43:12.839Z,76530.59
2022-08-28T04:45:44.168Z,76534.59
2022-08-28T04:48:14.664Z,76538.59
2022-08-28T04:50:42.182Z,76534.59
2022-08-28T04:53:08.615Z,76534.59
2022-08-28T04:55:53.562Z,76542.59
2022-08-28T04:58:22.846Z,76538.59
2022-08-28T05:00:50.408Z,76538.59
2022-08-28T05:03:17.720Z,76544.59
2022-08-28T05:05:45.039Z,76534.59
2022-08-28T05:08:12.876Z,76542.59
2022-08-28T05:10:40.446Z,76542.59
2022-08-28T05:13:08.234Z,76542.59
2022-08-28T05:15:38.295Z,76542.59
2022-08-28T05:18:04.920Z,76548.59
2022-08-28T05:20:35.307Z,76548.59
2022-08-28T05:23:01.653Z,76550.59
2022-08-28T05:25:28.077Z,76546.59
2022-08-28T05:27:54.443Z,76546.59
2022-08-28T05:30:21.491Z,76550.59
2022-08-28T05:32:47.910Z,76556.59
2022-08-28T05:35:14.626Z,76550.59
2022-08-28T05:37:41.112Z,76558.59
2022-08-28T05:40:10.537Z,76554.59
2022-08-28T05:42:39.189Z,76558.59
2022-08-28T05:45:06.444Z,76556.59
2022-08-28T05:47:32.850Z,76556.59
2022-08-28T05:49:59.427Z,76552.59
2022-08-28T05:52:25.910Z,76550.59
2022-08-28T05:54:52.587Z,76552.59
2022-08-28T05:57:18.958Z,76552.59
2022-08-28T05:59:45.397Z,76554.59
2022-08-28T06:02:11.823Z,76554.59
2022-08-28T06:04:40.538Z,76552.59
2022-08-28T06:07:07.017Z,76558.59
2022-08-28T06:09:33.518Z,76554.59
2022-08-28T06:12:02.166Z,76546.59
2022-08-28T06:14:29.780Z,76550.59
2022-08-28T06:16:56.636Z,76550.59
2022-08-28T06:19:24.644Z,76552.59
2022-08-28T06:21:54.292Z,76554.59
2022-08-28T06:24:20.753Z,76554.59
2022-08-28T06:26:47.282Z,76552.59
2022-08-28T06:29:15.907Z,76554.59
2022-08-28T06:31:42.489Z,76554.59
2022-08-28T06:34:09.415Z,76552.59
2022-08-28T06:36:37.569Z,76558.59
2022-08-28T06:39:04.775Z,76564.59
2022-08-28T06:41:32.277Z,76562.59
2022-08-28T06:43:59.095Z,76566.59
2022-08-28T06:46:26.524Z,76564.59
2022-08-28T06:48:52.997Z,76566.59
2022-08-28T06:51:19.855Z,76574.63
2022-08-28T06:53:49.540Z,76566.59
2022-08-28T06:56:25.690Z,76582.63
2022-08-28T06:58:54.264Z,76584.63
2022-08-28T07:01:22.944Z,76582.63
2022-08-28T07:03:51.183Z,76586.63
2022-08-28T07:06:17.957Z,76586.63
2022-08-28T07:08:44.452Z,76586.63
2022-08-28T07:11:17.230Z,76592.63
2022-08-28T07:13:44.425Z,76592.63
2022-08-28T07:16:11.047Z,76598.63
2022-08-28T07:18:38.083Z,76602.63
2022-08-28T07:21:05.674Z,76602.63
2022-08-28T07:23:34.164Z,76602.63
2022-08-28T07:26:03.678Z,76602.63
2022-08-28T07:28:30.055Z,76598.63
2022-08-28T07:30:58.193Z,76602.63
2022-08-28T07:33:24.855Z,76604.63
2022-08-28T07:35:51.290Z,76610.63
2022-08-28T07:38:17.669Z,76604.63
2022-08-28T07:40:44.060Z,76602.63
2022-08-28T07:43:29.203Z,76606.63
2022-08-28T07:45:59.739Z,76608.63
2022-08-28T07:48:26.582Z,76610.63
2022-08-28T07:50:53.540Z,76610.63
2022-08-28T07:53:20.203Z,76612.66
2022-08-28T07:55:48.887Z,76616.66
2022-08-28T07:58:15.562Z,76622.66
2022-08-28T08:00:41.978Z,76624.66
2022-08-28T08:03:08.550Z,76622.66
2022-08-28T08:05:34.966Z,76626.66
2022-08-28T08:08:01.421Z,76630.66
2022-08-28T08:10:27.798Z,76630.66
2022-08-28T08:13:00.678Z,76630.66
2022-08-28T08:15:31.195Z,76628.66
2022-08-28T08:17:57.850Z,76622.66
2022-08-28T08:20:24.387Z,76620.66
2022-08-28T08:22:50.852Z,76614.66
2022-08-28T08:25:17.324Z,76620.66
2022-08-28T08:27:43.736Z,76610.63
2022-08-28T08:30:11.720Z,76610.63
2022-08-28T08:32:40.103Z,76614.66
2022-08-28T08:35:06.810Z,76610.63
2022-08-28T08:37:33.300Z,76606.63
2022-08-28T08:39:59.810Z,76602.63
2022-08-28T08:42:28.397Z,76590.63
2022-08-28T08:44:57.575Z,76586.63
2022-08-28T08:47:35.923Z,76588.63
2022-08-28T08:50:05.531Z,76586.63
2022-08-28T08:52:37.811Z,76590.63
2022-08-28T08:55:07.296Z,76582.63
2022-08-28T08:57:35.728Z,76586.63
2022-08-28T09:00:04.227Z,76588.63
2022-08-28T09:02:34.079Z,76586.63
2022-08-28T09:05:06.213Z,76590.63
2022-08-28T09:07:37.956Z,76588.63
2022-08-28T09:10:05.558Z,76594.63
2022-08-28T09:12:39.982Z,76590.63
2022-08-28T09:15:12.405Z,76592.63
2022-08-28T09:17:42.502Z,76598.63
2022-08-28T09:20:10.551Z,76596.63
2022-08-28T09:22:37.547Z,76598.63
2022-08-28T09:25:06.718Z,76606.63
2022-08-28T09:27:35.944Z,76598.63
2022-08-28T09:30:08.558Z,76598.63
2022-08-28T09:32:38.667Z,76602.63
2022-08-28T09:35:06.216Z,76606.63
2022-08-28T09:37:34.244Z,76610.63
2022-08-28T09:40:52.792Z,76610.63
2022-08-28T09:43:30.186Z,76606.63
2022-08-28T09:45:59.741Z,76616.66
2022-08-28T09:48:37.087Z,76614.66
2022-08-28T09:51:06.324Z,76610.63
2022-08-28T09:53:35.216Z,76616.66
2022-08-28T09:56:13.971Z,76614.66
2022-08-28T09:58:51.431Z,76622.66
2022-08-28T10:01:30.403Z,76622.66
2022-08-28T10:04:17.927Z,76626.66
2022-08-28T10:06:49.111Z,76626.66
2022-08-28T10:09:27.874Z,76628.66
2022-08-28T10:12:13.085Z,76630.66
2022-08-28T10:14:42.540Z,76624.66
2022-08-28T10:17:21.588Z,76626.66
2022-08-28T10:19:51.220Z,76622.66
2022-08-28T10:22:29.767Z,76622.66
2022-08-28T10:25:02.743Z,76626.66
2022-08-28T10:27:29.108Z,76626.66
2022-08-28T10:30:12.425Z,76630.66
2022-08-28T10:32:57.191Z,76634.66
2022-08-28T10:35:42.461Z,76638.66
2022-08-28T10:38:14.083Z,76642.66
2022-08-28T10:40:46.594Z,76640.66
2022-08-28T10:43:21.253Z,76644.66
2022-08-28T10:45:48.616Z,76654.66
2022-08-28T10:48:25.177Z,76646.66
2022-08-28T10:51:06.600Z,76654.66
2022-08-28T10:53:37.645Z,76650.66
2022-08-28T10:56:08.493Z,76654.66
2022-08-28T10:58:37.134Z,76658.69
2022-08-28T11:01:06.928Z,76662.69
2022-08-28T11:03:39.414Z,76664.69
2022-08-28T11:06:24.060Z,76666.69
2022-08-28T11:08:54.876Z,76670.69
2022-08-28T11:11:41.723Z,76670.69
2022-08-28T11:14:08.219Z,76672.69
2022-08-28T11:16:34.757Z,76676.69
2022-08-28T11:19:17.508Z,76670.69
2022-08-28T11:21:43.862Z,76674.69
2022-08-28T11:24:25.680Z,76674.69
2022-08-28T11:26:59.118Z,76680.69
2022-08-28T11:29:44.328Z,76680.69
2022-08-28T11:32:27.651Z,76684.69
2022-08-28T11:34:59.262Z,76690.69
2022-08-28T11:37:38.970Z,76694.69
2022-08-28T11:40:24.265Z,76690.69
2022-08-28T11:42:50.776Z,76692.69
2022-08-28T11:45:21.723Z,76694.69
2022-08-28T11:47:52.977Z,76694.69
2022-08-28T11:50:24.742Z,76698.69
2022-08-28T11:52:57.254Z,76698.69
2022-08-28T11:55:30.064Z,76696.69
2022-08-28T12:00:28.913Z,76694.69
2022-08-28T12:03:15.568Z,76690.69
2022-08-28T12:05:50.080Z,76692.69
2022-08-28T12:08:35.061Z,76694.69
2022-08-28T12:11:01.603Z,76702.72
2022-08-28T12:13:43.263Z,76698.69
2022-08-28T12:16:09.737Z,76698.69
2022-08-28T12:18:39.363Z,76698.69
2022-08-28T12:21:26.052Z,76710.72
2022-08-28T12:24:05.361Z,76700.72
2022-08-28T12:26:38.648Z,76708.72
2022-08-28T12:29:11.159Z,76712.72
2022-08-28T12:32:02.766Z,76718.72
2022-08-28T12:34:50.193Z,76714.72
2022-08-28T12:37:31.804Z,76716.72
2022-08-28T12:40:26.608Z,76720.72
2022-08-28T12:42:55.918Z,76716.72
2022-08-28T12:45:31.600Z,76714.72
2022-08-28T12:48:00.192Z,76714.72
2022-08-28T12:50:32.249Z,76718.72
2022-08-28T12:53:01.186Z,76716.72
2022-08-28T12:55:27.746Z,76714.72
2022-08-28T12:57:54.477Z,76724.72
2022-08-28T13:00:26.100Z,76726.72
2022-08-28T13:02:54.556Z,76726.72
2022-08-28T13:05:27.125Z,76726.72
2022-08-28T13:07:56.430Z,76730.72
2022-08-28T13:10:24.759Z,76730.72
2022-08-28T13:12:56.077Z,76726.72
2022-08-28T13:15:42.693Z,76726.72
2022-08-28T13:18:09.067Z,76726.72
2022-08-28T13:20:36.584Z,76722.72
2022-08-28T13:23:03.467Z,76722.72
2022-08-28T13:25:37.583Z,76722.72
2022-08-28T13:28:14.618Z,76724.72
2022-08-28T13:30:41.177Z,76712.72
2022-08-28T13:33:16.703Z,76714.72
2022-08-28T13:35:43.220Z,76718.72
2022-08-28T13:38:11.586Z,76704.72
2022-08-28T13:40:58.333Z,76712.72
2022-08-28T13:43:26.219Z,76706.72
2022-08-28T13:45:52.852Z,76710.72
2022-08-28T13:48:21.598Z,76712.72
2022-08-28T13:50:51.362Z,76700.72
2022-08-28T13:53:18.875Z,76702.72
2022-08-28T13:55:45.999Z,76702.72
2022-08-28T13:58:13.884Z,76702.72
2022-08-28T14:00:42.408Z,76700.72
2022-08-28T14:03:27.639Z,76698.69
2022-08-28T14:05:54.552Z,76700.72
2022-08-28T14:08:21.691Z,76702.72
2022-08-28T14:10:48.787Z,76704.72
2022-08-28T14:13:15.283Z,76702.72
2022-08-28T14:15:41.744Z,76704.72
2022-08-28T14:18:08.195Z,76704.72
2022-08-28T14:20:34.685Z,76702.72
2022-08-28T14:23:01.216Z,76702.72
2022-08-28T14:25:27.597Z,76700.72
2022-08-28T14:27:55.743Z,76692.69
2022-08-28T14:30:22.930Z,76694.69
2022-08-28T14:32:49.425Z,76686.69
2022-08-28T14:35:15.934Z,76690.69
2022-08-28T14:37:42.439Z,76690.69
2022-08-28T14:40:10.109Z,76692.69
2022-08-28T14:42:36.542Z,76688.69
2022-08-28T14:45:02.991Z,76690.69
2022-08-28T14:47:29.483Z,76694.69
2022-08-28T14:49:55.871Z,76694.69
2022-08-28T14:52:22.897Z,76690.69
2022-08-28T14:54:49.304Z,76692.69
2022-08-28T14:57:15.861Z,76690.69
2022-08-28T14:59:42.376Z,76690.69
2022-08-28T15:02:08.838Z,76690.69
2022-08-28T15:04:37.792Z,76690.69
2022-08-28T15:07:08.614Z,76686.69
2022-08-28T15:09:36.872Z,76686.69
2022-08-28T15:12:03.419Z,76682.69
2022-08-28T15:14:30.453Z,76682.69
2022-08-28T15:16:56.947Z,76682.69
2022-08-28T15:19:23.474Z,76686.69
2022-08-28T15:21:51.431Z,76686.69
2022-08-28T15:24:19.332Z,76682.69
2022-08-28T15:26:45.833Z,76674.69
2022-08-28T15:29:12.331Z,76682.69
2022-08-28T15:31:41.895Z,76678.69
2022-08-28T15:34:13.403Z,76682.69
2022-08-28T15:36:40.973Z,76682.69
2022-08-28T15:39:26.650Z,76684.69
2022-08-28T15:41:53.272Z,76684.69
2022-08-28T15:44:19.796Z,76684.69
2022-08-28T15:46:50.875Z,76682.69
2022-08-28T15:49:17.512Z,76686.69
2022-08-28T15:51:44.199Z,76686.69
2022-08-28T15:54:11.214Z,76684.69
2022-08-28T15:56:37.676Z,76686.69
2022-08-28T15:59:04.291Z,76678.69
2022-08-28T16:01:30.701Z,76686.69
2022-08-28T16:03:57.134Z,76680.69
2022-08-28T16:06:23.888Z,76682.69
2022-08-28T16:08:50.643Z,76682.69
2022-08-28T16:11:18.300Z,76684.69
2022-08-28T16:13:45.530Z,76686.69
2022-08-28T16:16:12.292Z,76680.69
2022-08-28T16:18:38.806Z,76682.69
2022-08-28T16:21:05.738Z,76684.69
2022-08-28T16:23:32.614Z,76686.69
2022-08-28T16:25:59.256Z,76686.69
2022-08-28T16:28:26.103Z,76678.69
2022-08-28T16:30:53.865Z,76690.69
2022-08-28T16:33:20.882Z,76682.69
2022-08-28T16:35:54.961Z,76686.69
2022-08-28T16:38:26.337Z,76682.69
2022-08-28T16:40:52.828Z,76686.69
2022-08-28T16:43:20.478Z,76674.69
2022-08-28T16:45:47.279Z,76686.69
2022-08-28T16:48:14.836Z,76688.69
2022-08-28T16:50:42.312Z,76682.69
2022-08-28T16:53:09.973Z,76690.69
2022-08-28T16:55:37.271Z,76678.69
2022-08-28T16:58:04.339Z,76682.69
2022-08-28T17:00:31.233Z,76678.69
2022-08-28T17:02:57.775Z,76682.69
2022-08-28T17:05:24.936Z,76690.69
2022-08-28T17:07:52.036Z,76688.69
2022-08-28T17:10:20.464Z,76690.69
2022-08-28T17:12:47.097Z,76688.69
2022-08-28T17:15:13.943Z,76686.69
2022-08-28T17:17:40.839Z,76690.69
2022-08-28T17:20:08.007Z,76690.69
2022-08-28T17:22:34.504Z,76690.69
2022-08-28T17:25:03.242Z,76692.69
2022-08-28T17:27:32.084Z,76694.69
2022-08-28T17:29:58.835Z,76690.69
2022-08-28T17:32:25.252Z,76694.69
2022-08-28T17:34:51.615Z,76698.69
2022-08-28T17:37:20.580Z,76694.69
2022-08-28T17:39:47.663Z,76700.72
2022-08-28T17:42:14.050Z,76698.69
2022-08-28T17:44:40.461Z,76698.69
2022-08-28T17:47:07.162Z,76702.72
2022-08-28T17:49:33.782Z,76700.72
2022-08-28T17:52:00.362Z,76706.72
2022-08-28T17:54:26.813Z,76708.72
2022-08-28T17:56:54.618Z,76706.72
2022-08-28T17:59:21.907Z,76706.72
2022-08-28T18:01:49.405Z,76704.72
2022-08-28T18:04:23.052Z,76698.69
2022-08-28T18:06:52.676Z,76684.69
2022-08-28T18:09:19.378Z,76678.69
2022-08-28T18:11:45.903Z,76678.69
2022-08-28T18:14:12.513Z,76674.69
2022-08-28T18:16:39.181Z,76678.69
2022-08-28T18:19:06.947Z,76678.69
2022-08-28T18:21:33.622Z,76672.69
2022-08-28T18:24:00.106Z,76672.69
2022-08-28T18:26:26.547Z,76680.69
2022-08-28T18:28:53.054Z,76678.69
2022-08-28T18:31:19.549Z,76682.69
2022-08-28T18:33:46.629Z,76686.69
2022-08-28T18:36:16.600Z,76694.69
2022-08-28T18:38:43.593Z,76690.69
2022-08-28T18:41:10.690Z,76698.69
2022-08-28T18:43:37.717Z,76700.72
2022-08-28T18:46:05.245Z,76704.72
2022-08-28T18:48:32.432Z,76698.69
2022-08-28T18:50:58.992Z,76702.72
2022-08-28T18:53:27.934Z,76700.72
2022-08-28T18:55:55.418Z,76706.72
2022-08-28T18:58:23.243Z,76710.72
2022-08-28T19:00:50.058Z,76714.72
2022-08-28T19:03:16.461Z,76710.72
2022-08-28T19:05:45.323Z,76714.72
2022-08-28T19:08:12.079Z,76716.72
2022-08-28T19:10:38.601Z,76718.72
2022-08-28T19:13:05.913Z,76714.72
2022-08-28T19:15:32.674Z,76726.72
2022-08-28T19:18:02.713Z,76718.72
2022-08-28T19:20:29.741Z,76722.72
2022-08-28T19:22:56.736Z,76726.72
2022-08-28T19:25:28.149Z,76730.72
2022-08-28T19:27:56.411Z,76730.72
2022-08-28T19:30:26.431Z,76734.72
2022-08-28T19:32:53.320Z,76734.72
2022-08-28T19:35:19.756Z,76738.75
2022-08-28T19:37:46.225Z,76738.75
2022-08-28T19:40:12.898Z,76750.75
2022-08-28T19:42:39.522Z,76748.75
2022-08-28T19:45:07.261Z,76754.75
2022-08-28T19:47:35.560Z,76754.75
2022-08-28T19:50:02.868Z,76758.75
2022-08-28T19:52:29.298Z,76762.75
2022-08-28T19:54:55.678Z,76758.75
2022-08-28T19:57:22.461Z,76758.75
2022-08-28T19:59:48.992Z,76760.75
2022-08-28T20:02:15.492Z,76760.75
2022-08-28T20:04:41.951Z,76770.75
2022-08-28T20:07:08.443Z,76766.75
2022-08-28T20:09:34.966Z,76772.75
2022-08-28T20:12:02.459Z,76772.75
2022-08-28T20:14:28.994Z,76770.75
2022-08-28T20:16:55.436Z,76772.75
2022-08-28T20:19:22.595Z,76778.75
2022-08-28T20:21:50.076Z,76782.78
2022-08-28T20:24:23.580Z,76780.78
2022-08-28T20:26:50.822Z,76782.78
2022-08-28T20:29:17.654Z,76786.78
2022-08-28T20:31:45.148Z,76790.78
2022-08-28T20:34:12.312Z,76786.78
2022-08-28T20:36:38.979Z,76786.78
2022-08-28T20:39:07.319Z,76786.78
2022-08-28T20:41:34.238Z,76792.78
2022-08-28T20:44:06.290Z,76796.78
2022-08-28T20:46:36.015Z,76802.78
2022-08-28T20:49:07.046Z,76802.78
2022-08-28T20:51:52.292Z,76796.78
2022-08-28T20:54:38.949Z,76798.78
2022-08-28T20:57:07.799Z,76794.78
2022-08-28T20:59:39.615Z,76798.78
2022-08-28T21:02:08.054Z,76802.78
2022-08-28T21:04:36.288Z,76806.78
2022-08-28T21:07:04.001Z,76806.78
2022-08-28T21:10:04.408Z,76806.78
2022-08-28T21:12:16.895Z,76802.78
2022-08-28T21:14:44.376Z,76802.78
2022-08-28T21:17:18.461Z,76800.78
2022-08-28T21:19:56.771Z,76802.78
2022-08-28T21:22:23.244Z,76804.78
2022-08-28T21:24:50.239Z,76806.78
2022-08-28T21:27:18.607Z,76804.78
2022-08-28T21:29:46.094Z,76802.78
2022-08-28T21:32:13.164Z,76802.78
2022-08-28T21:34:39.741Z,76802.78
2022-08-28T21:37:06.527Z,76796.78
2022-08-28T21:39:33.322Z,76802.78
2022-08-28T21:41:59.760Z,76798.78
2022-08-28T21:44:26.327Z,76798.78
2022-08-28T21:46:52.843Z,76796.78
2022-08-28T21:49:19.304Z,76798.78
2022-08-28T21:51:45.784Z,76802.78
2022-08-28T21:54:12.287Z,76798.78
2022-08-28T21:56:38.695Z,76806.78
2022-08-28T21:59:05.123Z,76808.78
2022-08-28T22:01:31.553Z,76810.78
2022-08-28T22:03:58.032Z,76810.78
2022-08-28T22:06:25.396Z,76814.78
2022-08-28T22:08:52.008Z,76810.78
2022-08-28T22:11:21.137Z,76814.78
2022-08-28T22:13:52.321Z,76826.81
2022-08-28T22:16:18.858Z,76822.81
2022-08-28T22:18:45.406Z,76820.81
2022-08-28T22:21:32.064Z,76822.81
2022-08-28T22:23:58.653Z,76822.81
2022-08-28T22:26:25.079Z,76822.81
2022-08-28T22:28:51.476Z,76820.81
2022-08-28T22:31:17.987Z,76828.81
2022-08-28T22:33:45.413Z,76818.81
2022-08-28T22:36:12.238Z,76824.81
2022-08-28T22:38:39.279Z,76826.81
2022-08-28T22:41:06.235Z,76832.81
2022-08-28T22:43:32.762Z,76830.81
2022-08-28T22:45:59.274Z,76832.81
2022-08-28T22:48:25.711Z,76836.81
2022-08-28T22:51:00.052Z,76840.81
2022-08-28T22:53:26.711Z,76838.81
2022-08-28T22:55:53.075Z,76846.81
2022-08-28T22:58:19.460Z,76848.81
2022-08-28T23:00:45.863Z,76844.81
2022-08-28T23:03:12.424Z,76850.81
2022-08-28T23:05:38.924Z,76852.81
2022-08-28T23:08:05.427Z,76858.84
2022-08-28T23:10:55.144Z,76854.81
2022-08-28T23:13:19.676Z,76854.81
2022-08-28T23:15:47.703Z,76850.81
2022-08-28T23:18:14.552Z,76848.81
2022-08-28T23:20:41.410Z,76844.81
2022-08-28T23:23:09.238Z,76846.81
2022-08-28T23:25:35.692Z,76844.81
2022-08-28T23:28:06.481Z,76844.81
2022-08-28T23:30:33.547Z,76846.81
2022-08-28T23:33:00.087Z,76842.81
2022-08-28T23:35:26.711Z,76842.81
2022-08-28T23:37:53.327Z,76844.81
2022-08-28T23:40:21.848Z,76836.81
2022-08-28T23:42:48.849Z,76836.81
2022-08-28T23:45:16.723Z,76832.81
2022-08-28T23:47:43.330Z,76836.81
2022-08-28T23:50:12.458Z,76832.81
2022-08-28T23:52:39.180Z,76834.81
2022-08-28T23:55:06.539Z,76836.81
2022-08-28T23:57:34.455Z,76836.81
